createdAt,value
2022-08-31T00:02:42.033Z,57.50
2022-08-31T00:07:46.035Z,57.60
2022-08-31T00:12:50.388Z,57.80
2022-08-31T00:17:53.790Z,57.80
2022-08-31T00:22:57.669Z,58.00
2022-08-31T00:28:00.117Z,58.10
2022-08-31T00:33:03.511Z,58.00
2022-08-31T00:38:08.180Z,58.20
2022-08-31T00:43:10.590Z,58.40
2022-08-31T00:48:12.964Z,58.50
2022-08-31T00:53:17.083Z,58.50
2022-08-31T00:58:19.997Z,58.80
2022-08-31T01:03:23.013Z,58.90
2022-08-31T01:08:27.183Z,59.00
2022-08-31T01:13:33.578Z,59.30
2022-08-31T01:18:35.947Z,59.20
2022-08-31T01:23:42.893Z,59.20
2022-08-31T01:28:46.071Z,59.60
2022-08-31T01:33:51.156Z,59.50
2022-08-31T01:38:55.279Z,59.60
2022-08-31T01:43:58.205Z,59.70
2022-08-31T01:49:00.675Z,59.80
2022-08-31T01:54:05.894Z,59.80
2022-08-31T01:59:10.887Z,60.10
2022-08-31T02:04:16.335Z,60.40
2022-08-31T02:09:21.180Z,60.60
2022-08-31T02:14:23.757Z,61.00
2022-08-31T02:19:26.454Z,61.10
2022-08-31T02:24:30.998Z,61.40
2022-08-31T02:29:33.558Z,61.90
2022-08-31T02:34:35.886Z,61.80
2022-08-31T02:39:39.862Z,62.00
2022-08-31T02:44:42.995Z,62.30
2022-08-31T02:49:45.394Z,62.30
2022-08-31T02:54:49.145Z,62.40
2022-08-31T02:59:51.558Z,62.70
2022-08-31T03:04:53.989Z,62.50
2022-08-31T03:09:57.853Z,62.70
2022-08-31T03:15:00.385Z,62.90
2022-08-31T03:20:03.668Z,62.80
2022-08-31T03:25:09.862Z,62.90
2022-08-31T03:30:16.827Z,63.10
2022-08-31T03:35:19.285Z,63.00
2022-08-31T03:40:24.427Z,62.70
2022-08-31T03:45:27.869Z,62.80
2022-08-31T03:50:30.328Z,62.70
2022-08-31T03:55:36.154Z,62.70
2022-08-31T04:00:39.225Z,63.00
2022-08-31T04:05:44.475Z,62.90
2022-08-31T04:10:51.656Z,63.20
2022-08-31T04:15:54.166Z,63.40
2022-08-31T04:20:56.657Z,63.20
2022-08-31T04:26:00.482Z,63.40
2022-08-31T04:31:07.176Z,63.60
2022-08-31T04:36:12.114Z,63.90
2022-08-31T04:41:19.248Z,63.90
2022-08-31T04:46:22.833Z,64.40
2022-08-31T04:51:27.620Z,64.20
2022-08-31T04:56:35.969Z,64.40
2022-08-31T05:01:43.313Z,64.60
2022-08-31T05:06:47.281Z,64.60
2022-08-31T05:11:54.099Z,64.80
2022-08-31T05:16:56.702Z,65.80
2022-08-31T05:21:59.262Z,66.40
2022-08-31T05:27:03.717Z,66.60
2022-08-31T05:32:06.563Z,66.10
2022-08-31T05:37:09.208Z,64.90
2022-08-31T05:42:13.229Z,63.60
2022-08-31T05:47:15.877Z,62.10
2022-08-31T05:52:18.782Z,61.30
2022-08-31T05:57:31.499Z,60.20
2022-08-31T06:02:36.366Z,58.90
2022-08-31T06:07:38.965Z,58.20
2022-08-31T06:12:43.539Z,57.10
2022-08-31T06:17:46.096Z,55.80
2022-08-31T06:22:48.875Z,55.10
2022-08-31T06:27:52.999Z,54.20
2022-08-31T06:32:58.699Z,53.40
2022-08-31T06:38:01.848Z,52.90
2022-08-31T06:43:05.872Z,52.00
2022-08-31T06:48:08.475Z,50.70
2022-08-31T06:53:11.143Z,49.80
2022-08-31T06:58:15.302Z,50.10
2022-08-31T07:03:18.206Z,49.10
2022-08-31T07:08:22.329Z,47.80
2022-08-31T07:13:26.565Z,47.00
2022-08-31T07:18:29.205Z,46.40
2022-08-31T07:23:32.075Z,48.20
2022-08-31T07:28:37.129Z,47.00
2022-08-31T07:33:40.135Z,47.50
2022-08-31T07:38:46.069Z,47.20
2022-08-31T07:43:50.177Z,46.40
2022-08-31T07:48:52.754Z,45.30
2022-08-31T07:53:56.278Z,44.90
2022-08-31T07:59:00.475Z,44.80
2022-08-31T08:04:03.688Z,43.80
2022-08-31T08:09:22.193Z,43.50
2022-08-31T08:14:27.292Z,44.60
2022-08-31T08:19:33.192Z,44.80
2022-08-31T08:24:35.962Z,44.70
2022-08-31T08:29:40.742Z,43.90
2022-08-31T08:34:45.642Z,43.90
2022-08-31T08:39:48.257Z,43.60
2022-08-31T08:44:52.638Z,43.60
2022-08-31T08:49:59.913Z,42.80
2022-08-31T08:55:06.459Z,44.00
2022-08-31T09:00:16.256Z,43.60
2022-08-31T09:05:44.331Z,43.60
2022-08-31T09:11:00.403Z,43.90
2022-08-31T09:16:21.030Z,43.10
2022-08-31T09:21:27.871Z,43.70
2022-08-31T09:26:32.433Z,44.80
2022-08-31T09:31:39.545Z,45.30
2022-08-31T09:36:42.374Z,45.70
2022-08-31T09:41:45.843Z,45.70
2022-08-31T09:46:52.598Z,45.90
2022-08-31T09:52:17.568Z,45.20
2022-08-31T09:57:40.214Z,45.30
2022-08-31T10:02:44.461Z,45.10
2022-08-31T10:07:55.395Z,44.70
2022-08-31T10:13:02.040Z,44.20
2022-08-31T10:18:07.938Z,43.60
2022-08-31T10:23:18.224Z,44.20
2022-08-31T10:28:30.337Z,43.80
2022-08-31T10:33:39.500Z,42.70
2022-08-31T10:38:46.207Z,41.90
2022-08-31T10:43:57.477Z,43.40
2022-08-31T10:49:03.710Z,43.50
2022-08-31T10:54:12.549Z,41.60
2022-08-31T10:59:23.791Z,43.10
2022-08-31T11:04:51.683Z,41.00
2022-08-31T11:10:04.435Z,38.40
2022-08-31T11:15:26.657Z,35.90
2022-08-31T11:20:53.087Z,35.00
2022-08-31T11:26:27.827Z,36.10
2022-08-31T11:31:33.709Z,37.40
2022-08-31T11:36:48.279Z,37.20
2022-08-31T11:41:53.931Z,35.50
2022-08-31T11:47:06.089Z,36.50
2022-08-31T11:52:43.572Z,38.10
2022-08-31T11:58:31.446Z,37.90
2022-08-31T12:03:53.476Z,34.80
2022-08-31T12:09:17.694Z,35.90
2022-08-31T12:14:31.085Z,36.40
2022-08-31T12:19:52.064Z,36.90
2022-08-31T12:25:10.365Z,38.10
2022-08-31T12:30:18.792Z,39.00
2022-08-31T12:35:24.430Z,38.60
2022-08-31T12:40:30.347Z,39.20
2022-08-31T12:45:50.548Z,39.60
2022-08-31T12:51:00.612Z,39.80
2022-08-31T12:56:10.191Z,39.20
2022-08-31T13:01:18.187Z,38.20
2022-08-31T13:06:25.920Z,39.00
2022-08-31T13:11:39.954Z,38.90
2022-08-31T13:16:46.373Z,39.90
2022-08-31T13:21:55.508Z,39.20
2022-08-31T13:27:10.489Z,39.70
2022-08-31T13:32:27.808Z,39.70
2022-08-31T13:37:34.068Z,39.70
2022-08-31T13:42:42.017Z,39.20
2022-08-31T13:47:56.816Z,39.60
2022-08-31T13:53:36.041Z,41.10
2022-08-31T13:58:30.674Z,41.50
2022-08-31T14:03:36.657Z,40.70
2022-08-31T14:08:39.289Z,41.10
2022-08-31T14:13:49.716Z,41.40
2022-08-31T14:18:55.146Z,41.40
2022-08-31T14:23:59.199Z,41.20
2022-08-31T14:29:05.942Z,41.20
2022-08-31T14:34:11.962Z,41.60
2022-08-31T14:39:14.601Z,41.80
2022-08-31T14:44:22.981Z,41.70
2022-08-31T14:49:26.642Z,41.50
2022-08-31T14:54:29.417Z,41.70
2022-08-31T14:59:34.040Z,41.60
2022-08-31T15:04:39.858Z,41.20
2022-08-31T15:09:47.788Z,41.20
2022-08-31T15:14:54.956Z,41.50
2022-08-31T15:19:57.559Z,41.70
2022-08-31T15:25:00.081Z,42.70
2022-08-31T15:30:06.039Z,42.10
2022-08-31T15:35:09.773Z,42.30
2022-08-31T15:40:17.410Z,42.30
2022-08-31T15:45:22.857Z,42.30
2022-08-31T15:50:31.561Z,42.30
2022-08-31T15:55:35.106Z,42.50
2022-08-31T16:00:41.134Z,42.70
2022-08-31T16:05:44.916Z,43.10
2022-08-31T16:10:49.454Z,43.10
2022-08-31T16:15:53.855Z,43.30
2022-08-31T16:21:04.255Z,43.60
2022-08-31T16:26:07.386Z,43.60
2022-08-31T16:31:11.442Z,43.70
2022-08-31T16:36:17.255Z,44.00
2022-08-31T16:41:20.277Z,44.00
2022-08-31T16:46:39.941Z,44.10
2022-08-31T16:51:46.792Z,44.40
2022-08-31T16:56:52.031Z,44.40
2022-08-31T17:01:57.072Z,44.70
2022-08-31T17:07:00.611Z,44.80
2022-08-31T17:12:06.240Z,44.80
2022-08-31T17:17:17.214Z,45.00
2022-08-31T17:22:27.012Z,45.30
2022-08-31T17:27:34.837Z,45.40
2022-08-31T17:32:44.727Z,45.70
2022-08-31T17:37:49.493Z,45.90
2022-08-31T17:42:57.927Z,46.00
2022-08-31T17:48:05.513Z,46.20
2022-08-31T17:53:09.852Z,46.60
2022-08-31T17:58:13.613Z,46.70
2022-08-31T18:03:20.113Z,46.80
2022-08-31T18:08:24.394Z,47.40
2022-08-31T18:13:28.472Z,47.40
2022-08-31T18:18:34.774Z,47.80
2022-08-31T18:23:38.315Z,48.30
2022-08-31T18:28:43.673Z,48.20
2022-08-31T18:33:51.355Z,48.50
2022-08-31T18:38:56.805Z,49.10
2022-08-31T18:43:59.836Z,49.10
2022-08-31T18:49:12.092Z,49.30
2022-08-31T18:54:15.925Z,49.80
2022-08-31T18:59:21.293Z,49.90
2022-08-31T19:04:25.753Z,50.30
2022-08-31T19:09:30.139Z,50.70
2022-08-31T19:14:38.057Z,50.80
2022-08-31T19:19:43.933Z,51.60
2022-08-31T19:24:46.933Z,51.70
2022-08-31T19:29:49.514Z,51.70
2022-08-31T19:34:54.533Z,52.00
2022-08-31T19:39:58.977Z,52.40
2022-08-31T19:50:28.673Z,53.90
2022-08-31T19:55:31.393Z,53.40
2022-08-31T20:00:34.275Z,53.40
2022-08-31T20:05:41.725Z,53.70
2022-08-31T20:10:47.814Z,54.20
2022-08-31T20:15:53.292Z,54.20
2022-08-31T20:20:58.373Z,54.30
2022-08-31T20:26:04.533Z,54.70
2022-08-31T20:31:11.703Z,54.90
2022-08-31T20:36:19.780Z,54.80
2022-08-31T20:41:23.279Z,55.20
2022-08-31T20:46:26.046Z,55.00
2022-08-31T20:51:30.393Z,55.20
2022-08-31T20:56:34.327Z,55.60
2022-08-31T21:01:38.292Z,55.40
2022-08-31T21:06:42.431Z,55.60
2022-08-31T21:11:45.371Z,55.90
2022-08-31T21:16:49.192Z,55.80
2022-08-31T21:21:55.162Z,56.00
2022-08-31T21:26:58.248Z,56.30
2022-08-31T21:32:03.869Z,56.00
2022-08-31T21:37:09.778Z,56.10
2022-08-31T21:42:12.390Z,56.40
2022-08-31T21:47:14.920Z,56.40
2022-08-31T21:52:19.059Z,56.50
2022-08-31T21:57:21.662Z,56.90
2022-08-31T22:02:24.379Z,56.90
2022-08-31T22:07:28.606Z,57.00
2022-08-31T22:12:31.109Z,57.40
2022-08-31T22:17:56.109Z,57.30
2022-08-31T22:22:57.967Z,57.20
2022-08-31T22:28:00.629Z,57.50
2022-08-31T22:33:03.936Z,57.60
2022-08-31T22:38:08.079Z,57.70
2022-08-31T22:43:10.620Z,58.00
2022-08-31T22:48:13.780Z,57.90
2022-08-31T22:53:17.888Z,58.00
2022-08-31T22:58:20.615Z,58.40
2022-08-31T23:03:23.571Z,58.40
2022-08-31T23:08:27.688Z,58.60
2022-08-31T23:13:31.727Z,58.90
2022-08-31T23:18:34.330Z,59.00
2022-08-31T23:23:38.366Z,59.00
2022-08-31T23:28:40.929Z,59.10
2022-08-31T23:33:43.519Z,59.10
2022-08-31T23:38:47.495Z,59.30
2022-08-31T23:43:50.154Z,59.50
2022-08-31T23:48:53.062Z,59.60
2022-08-31T23:53:57.240Z,60.00
2022-08-31T23:59:00.719Z,60.00
